Time;durP1;ratioP1;P1;durP2;ratioP2;P2;SDS_P1;SDS_P2;PMS_P1;PMS_P2;Temp;Humidity;BMP_temperature;BMP_pressure;BME280_temperature;BME280_humidity;BME280_pressure;Samples;Min_cycle;Max_cycle;Signal;HPM_P1;HPM_P2
2022/07/07 00:00:32;;;;;;;0.40;0.40;;;15.70;99.90;;;;;;5056077;28;20233;-70
2022/07/07 00:03:20;;;;;;;0.40;0.40;;;15.70;99.90;;;;;;5055139;28;20212;-70
2022/07/07 00:06:08;;;;;;;0.40;0.40;;;15.70;99.90;;;;;;5055852;28;20675;-70
2022/07/07 00:08:57;;;;;;;0.40;0.40;;;15.70;99.90;;;;;;5056768;28;20571;-70
2022/07/07 00:11:46;;;;;;;0.40;0.40;;;15.70;99.90;;;;;;5056201;28;20252;-69
2022/07/07 00:14:35;;;;;;;0.40;0.40;;;15.70;99.90;;;;;;5056441;28;20228;-70
2022/07/07 00:17:23;;;;;;;0.40;0.40;;;15.80;99.90;;;;;;5055589;28;20197;-70
2022/07/07 00:20:11;;;;;;;0.40;0.40;;;15.90;99.90;;;;;;5056125;28;20208;-70
2022/07/07 00:22:59;;;;;;;0.40;0.40;;;15.80;99.90;;;;;;5055128;28;20231;-69
2022/07/07 00:25:47;;;;;;;0.40;0.40;;;15.90;99.90;;;;;;5056097;28;20200;-69
2022/07/07 00:28:37;;;;;;;0.40;0.40;;;15.90;99.90;;;;;;5056472;28;20208;-70
2022/07/07 00:31:26;;;;;;;0.50;0.50;;;15.90;99.90;;;;;;5055481;28;20229;-70
2022/07/07 00:34:14;;;;;;;0.40;0.40;;;15.90;99.90;;;;;;5054628;28;20201;-69
2022/07/07 00:37:02;;;;;;;0.50;0.50;;;15.90;99.90;;;;;;5055612;28;20724;-70
2022/07/07 00:39:50;;;;;;;0.40;0.40;;;15.90;99.90;;;;;;5055571;28;20700;-70
2022/07/07 00:42:38;;;;;;;0.70;0.70;;;16.00;99.90;;;;;;5055416;28;20197;-70
2022/07/07 00:45:28;;;;;;;0.40;0.40;;;15.90;99.90;;;;;;5054389;28;20693;-70
2022/07/07 00:48:18;;;;;;;0.40;0.40;;;15.90;99.90;;;;;;5056124;28;20213;-69
2022/07/07 00:51:07;;;;;;;0.50;0.50;;;15.90;99.90;;;;;;5054535;28;20294;-70
2022/07/07 00:53:55;;;;;;;0.50;0.50;;;15.90;99.90;;;;;;5055523;28;20205;-70
2022/07/07 00:56:44;;;;;;;0.50;0.50;;;15.90;99.90;;;;;;5055347;28;20271;-70
2022/07/07 00:59:35;;;;;;;0.40;0.40;;;15.80;99.90;;;;;;5054168;28;20740;-70
2022/07/07 01:02:24;;;;;;;0.40;0.40;;;15.80;99.90;;;;;;5054855;28;20233;-70
2022/07/07 01:05:13;;;;;;;0.40;0.40;;;15.70;99.90;;;;;;5054417;28;20212;-70
2022/07/07 01:08:02;;;;;;;0.40;0.40;;;15.60;99.90;;;;;;5054713;28;20201;-69
2022/07/07 01:10:51;;;;;;;0.40;0.40;;;15.40;99.90;;;;;;5054332;28;20217;-70
2022/07/07 01:13:40;;;;;;;0.40;0.40;;;15.40;99.90;;;;;;5053872;28;20276;-72
2022/07/07 01:16:33;;;;;;;0.40;0.40;;;15.30;99.90;;;;;;5054962;28;20218;-70
2022/07/07 01:19:24;;;;;;;0.40;0.40;;;15.30;99.90;;;;;;5053662;28;20677;-70
2022/07/07 01:22:14;;;;;;;0.40;0.40;;;15.30;99.90;;;;;;5054276;28;20221;-70
2022/07/07 01:25:04;;;;;;;0.40;0.40;;;15.20;99.90;;;;;;5053504;28;20577;-70
2022/07/07 01:27:53;;;;;;;0.40;0.40;;;15.20;99.90;;;;;;5055690;28;20209;-70
2022/07/07 01:30:41;;;;;;;0.40;0.40;;;15.10;99.90;;;;;;5054487;28;20213;-70
2022/07/07 01:33:29;;;;;;;0.40;0.40;;;15.10;99.90;;;;;;5054973;28;20193;-70
2022/07/07 01:36:17;;;;;;;0.50;0.50;;;15.00;99.90;;;;;;5054320;28;20225;-70
2022/07/07 01:39:05;;;;;;;0.40;0.40;;;14.90;99.90;;;;;;5055146;28;20209;-70
2022/07/07 01:41:54;;;;;;;0.40;0.40;;;14.90;99.90;;;;;;5054790;28;20222;-70
2022/07/07 01:44:44;;;;;;;0.40;0.40;;;14.80;99.90;;;;;;5054956;28;20193;-70
2022/07/07 01:47:33;;;;;;;0.40;0.40;;;14.80;99.90;;;;;;5054634;28;20428;-70
2022/07/07 01:50:21;;;;;;;0.50;0.50;;;14.80;99.90;;;;;;5053625;28;20201;-70
2022/07/07 01:53:09;;;;;;;0.40;0.40;;;14.70;99.90;;;;;;5062288;28;20416;-70
2022/07/07 01:56:03;;;;;;;0.40;0.40;;;14.70;99.90;;;;;;5054151;28;20257;-70
2022/07/07 01:58:52;;;;;;;0.40;0.40;;;14.70;99.90;;;;;;5053103;28;20263;-70
2022/07/07 02:01:41;;;;;;;0.50;0.50;;;14.60;99.90;;;;;;5041198;28;20230;-70
2022/07/07 02:04:29;;;;;;;0.40;0.40;;;14.50;99.90;;;;;;5034382;28;20694;-70
2022/07/07 02:07:18;;;;;;;0.40;0.40;;;14.50;99.90;;;;;;5034223;28;20436;-70
2022/07/07 02:10:06;;;;;;;0.40;0.40;;;14.50;99.90;;;;;;5032378;28;20433;-70
2022/07/07 02:12:54;;;;;;;0.40;0.40;;;14.40;99.90;;;;;;5033770;28;20425;-70
2022/07/07 02:15:44;;;;;;;0.50;0.50;;;14.40;99.90;;;;;;5032994;28;20289;-70
2022/07/07 02:18:36;;;;;;;0.40;0.40;;;14.40;99.90;;;;;;5033450;28;20515;-70
2022/07/07 02:21:24;;;;;;;0.40;0.40;;;14.30;99.90;;;;;;5032979;28;20229;-70
2022/07/07 02:24:13;;;;;;;0.40;0.40;;;14.30;99.90;;;;;;5036118;28;20417;-70
2022/07/07 02:27:01;;;;;;;0.40;0.40;;;14.30;99.90;;;;;;5037741;28;20502;-70
2022/07/07 02:29:49;;;;;;;0.40;0.40;;;14.20;99.90;;;;;;5037223;28;20999;-70
2022/07/07 02:32:38;;;;;;;0.87;0.87;;;14.20;99.90;;;;;;5037908;28;20202;-69
2022/07/07 02:35:26;;;;;;;0.40;0.40;;;14.20;99.90;;;;;;5036741;28;20433;-70
2022/07/07 02:38:15;;;;;;;0.40;0.40;;;14.10;99.90;;;;;;5038518;28;20960;-70
2022/07/07 02:41:04;;;;;;;0.40;0.40;;;14.20;99.90;;;;;;5036064;28;20507;-70
2022/07/07 02:43:52;;;;;;;0.40;0.40;;;14.20;99.90;;;;;;5038087;28;20945;-70
2022/07/07 02:46:40;;;;;;;0.50;0.50;;;14.20;99.90;;;;;;5036822;28;20420;-70
2022/07/07 02:49:30;;;;;;;0.40;0.40;;;14.20;99.90;;;;;;5046925;28;20452;-70
2022/07/07 02:52:18;;;;;;;0.40;0.40;;;14.20;99.90;;;;;;5048983;28;20468;-70
2022/07/07 02:55:07;;;;;;;0.40;0.40;;;14.20;99.90;;;;;;5046009;28;20429;-70
2022/07/07 02:57:55;;;;;;;0.40;0.40;;;14.30;99.90;;;;;;5038155;28;20465;-70
2022/07/07 03:00:43;;;;;;;0.40;0.40;;;14.30;99.90;;;;;;5036995;28;20467;-70
2022/07/07 03:03:31;;;;;;;0.40;0.40;;;14.30;99.90;;;;;;5037914;28;20483;-70
2022/07/07 03:06:20;;;;;;;0.40;0.40;;;14.40;99.90;;;;;;5037070;28;20206;-70
2022/07/07 03:09:08;;;;;;;0.40;0.40;;;14.40;99.90;;;;;;5037398;28;21023;-70
2022/07/07 03:11:57;;;;;;;0.40;0.40;;;14.50;99.90;;;;;;5035614;28;20516;-70
2022/07/07 03:14:45;;;;;;;0.40;0.40;;;14.50;99.90;;;;;;5037436;28;20464;-70
2022/07/07 03:17:33;;;;;;;0.40;0.40;;;14.50;99.90;;;;;;5037317;28;20304;-70
2022/07/07 03:20:21;;;;;;;0.40;0.40;;;14.60;99.90;;;;;;5036041;28;20429;-70
2022/07/07 03:23:10;;;;;;;0.40;0.40;;;14.60;99.90;;;;;;5037194;28;20425;-70
2022/07/07 03:25:58;;;;;;;0.40;0.40;;;14.60;99.90;;;;;;5036722;28;20210;-70
2022/07/07 03:28:46;;;;;;;0.40;0.40;;;14.60;99.90;;;;;;5037316;28;20194;-70
2022/07/07 03:31:34;;;;;;;0.40;0.40;;;14.70;99.90;;;;;;5036498;28;20453;-70
2022/07/07 03:34:22;;;;;;;0.40;0.40;;;14.70;99.90;;;;;;5036441;28;20205;-70
2022/07/07 03:37:10;;;;;;;0.40;0.40;;;14.70;99.90;;;;;;5035847;28;20241;-70
2022/07/07 03:40:01;;;;;;;0.40;0.40;;;14.70;99.90;;;;;;5037001;28;20426;-70
2022/07/07 03:42:49;;;;;;;0.40;0.40;;;14.60;99.90;;;;;;5037251;28;20238;-70
2022/07/07 03:45:37;;;;;;;0.40;0.40;;;14.60;99.90;;;;;;5034980;28;20523;-70
2022/07/07 03:48:25;;;;;;;0.40;0.40;;;14.60;99.90;;;;;;5036945;28;20675;-70
2022/07/07 03:51:13;;;;;;;0.50;0.50;;;14.60;99.90;;;;;;5034373;28;20453;-70
2022/07/07 03:54:01;;;;;;;0.40;0.40;;;14.60;99.90;;;;;;5036267;28;20257;-70
2022/07/07 03:56:51;;;;;;;0.40;0.40;;;14.50;99.90;;;;;;5035772;28;20284;-70
2022/07/07 03:59:39;;;;;;;0.40;0.40;;;14.50;99.90;;;;;;5036181;28;20205;-70
2022/07/07 04:02:27;;;;;;;0.40;0.40;;;14.50;99.90;;;;;;5035250;28;20483;-71
2022/07/07 04:05:15;;;;;;;0.40;0.40;;;14.50;99.90;;;;;;5036364;28;20198;-71
2022/07/07 04:08:03;;;;;;;0.40;0.40;;;14.40;99.90;;;;;;5035787;28;20514;-70
2022/07/07 04:10:51;;;;;;;0.40;0.40;;;14.40;99.90;;;;;;5035294;28;20232;-70
2022/07/07 04:13:41;;;;;;;0.50;0.50;;;14.50;99.90;;;;;;5034174;28;20475;-71
2022/07/07 04:16:30;;;;;;;0.40;0.40;;;14.50;99.90;;;;;;5035422;28;20440;-70
2022/07/07 04:19:18;;;;;;;0.40;0.40;;;14.40;99.90;;;;;;5034744;28;20202;-71
2022/07/07 04:22:07;;;;;;;0.40;0.40;;;14.40;99.90;;;;;;5034839;28;20295;-70
2022/07/07 04:24:55;;;;;;;0.40;0.40;;;14.30;99.90;;;;;;5035548;28;20429;-70
2022/07/07 04:27:43;;;;;;;0.40;0.40;;;14.40;99.90;;;;;;5035934;28;20272;-70
2022/07/07 04:30:32;;;;;;;0.40;0.40;;;14.30;99.90;;;;;;5034024;28;20878;-71
2022/07/07 04:33:20;;;;;;;0.40;0.40;;;14.30;99.90;;;;;;5035792;28;20436;-70
2022/07/07 04:36:11;;;;;;;0.40;0.40;;;14.40;99.90;;;;;;5033717;28;21114;-70
2022/07/07 04:38:59;;;;;;;0.40;0.40;;;14.40;99.90;;;;;;5035776;28;20786;-70
2022/07/07 04:41:47;;;;;;;0.50;0.50;;;14.40;99.90;;;;;;5033713;28;20441;-70
2022/07/07 04:44:35;;;;;;;0.40;0.40;;;14.50;99.90;;;;;;5035475;28;20425;-70
2022/07/07 04:47:24;;;;;;;0.50;0.50;;;14.50;99.90;;;;;;5034039;28;20475;-70
2022/07/07 04:50:13;;;;;;;0.40;0.40;;;14.50;99.90;;;;;;5035297;28;20436;-70
2022/07/07 04:53:01;;;;;;;0.40;0.40;;;14.50;99.90;;;;;;5034367;28;20429;-70
2022/07/07 04:55:49;;;;;;;0.40;0.40;;;14.40;99.90;;;;;;5034783;28;20836;-70
2022/07/07 04:58:37;;;;;;;0.40;0.40;;;14.40;99.90;;;;;;5035238;28;20469;-70
2022/07/07 05:01:26;;;;;;;0.40;0.40;;;14.40;99.90;;;;;;5033632;28;20465;-70
2022/07/07 05:04:15;;;;;;;0.40;0.40;;;14.40;99.90;;;;;;5035608;28;20803;-71
2022/07/07 05:07:04;;;;;;;0.40;0.40;;;14.40;99.90;;;;;;5034583;28;20424;-71
2022/07/07 05:09:52;;;;;;;0.40;0.40;;;14.40;99.90;;;;;;5033721;28;20514;-70
2022/07/07 05:12:40;;;;;;;0.40;0.40;;;14.30;99.90;;;;;;5035035;28;20431;-71
2022/07/07 05:15:28;;;;;;;0.50;0.50;;;14.20;99.90;;;;;;5069881;22;20498;-70
2022/07/07 05:18:16;;;;;;;0.40;0.40;;;14.20;99.90;;;;;;5074558;28;20699;-69
2022/07/07 05:21:06;;;;;;;0.40;0.40;;;14.20;99.90;;;;;;5074655;28;20429;-68
2022/07/07 05:23:54;;;;;;;0.40;0.40;;;14.20;99.90;;;;;;5074541;28;20788;-69
2022/07/07 05:26:42;;;;;;;0.50;0.50;;;14.30;99.90;;;;;;5053984;28;20826;-69
2022/07/07 05:29:31;;;;;;;0.40;0.40;;;14.30;99.90;;;;;;5053570;28;20420;-68
2022/07/07 05:32:19;;;;;;;0.40;0.40;;;14.30;99.90;;;;;;5056441;28;20424;-72
2022/07/07 05:35:08;;;;;;;0.40;0.40;;;14.30;99.90;;;;;;5054032;28;20915;-69
2022/07/07 05:37:58;;;;;;;0.40;0.40;;;14.30;99.90;;;;;;5053074;28;20464;-69
2022/07/07 05:40:46;;;;;;;0.40;0.40;;;14.30;99.90;;;;;;5054672;28;20468;-68
2022/07/07 05:43:34;;;;;;;0.50;0.50;;;14.30;99.90;;;;;;5054468;28;20435;-68
2022/07/07 05:46:22;;;;;;;0.50;0.50;;;14.30;99.90;;;;;;5053732;28;20267;-69
2022/07/07 05:49:10;;;;;;;0.50;0.50;;;14.30;99.90;;;;;;5054818;28;20446;-69
2022/07/07 05:51:59;;;;;;;0.50;0.50;;;14.30;99.90;;;;;;5054162;28;20424;-68
2022/07/07 05:54:49;;;;;;;0.50;0.50;;;14.40;99.90;;;;;;5053383;28;20446;-67
2022/07/07 05:57:37;;;;;;;0.40;0.40;;;14.40;99.90;;;;;;5053250;28;20420;-69
2022/07/07 06:00:26;;;;;;;0.87;0.87;;;14.60;99.90;;;;;;5050878;28;22367;-70
2022/07/07 06:03:14;;;;;;;0.50;0.50;;;14.50;99.90;;;;;;5047543;28;20440;-69
2022/07/07 06:06:03;;;;;;;0.40;0.40;;;14.50;99.90;;;;;;5053167;28;20440;-70
2022/07/07 06:08:53;;;;;;;0.47;0.47;;;14.50;99.90;;;;;;5054826;28;20452;-70
2022/07/07 06:11:42;;;;;;;0.40;0.40;;;14.50;99.90;;;;;;5054018;28;20205;-70
2022/07/07 06:14:30;;;;;;;0.50;0.50;;;14.70;99.90;;;;;;5054314;28;20452;-68
2022/07/07 06:17:19;;;;;;;0.50;0.50;;;14.70;99.90;;;;;;5046908;28;20433;-69
2022/07/07 06:20:10;;;;;;;0.50;0.50;;;14.80;99.90;;;;;;5038500;28;20425;-71
2022/07/07 06:22:58;;;;;;;0.50;0.50;;;14.80;99.90;;;;;;5054567;28;21006;-70
2022/07/07 06:25:46;;;;;;;0.47;0.47;;;14.80;99.90;;;;;;5053869;28;20232;-69
2022/07/07 06:28:36;;;;;;;0.50;0.50;;;14.80;99.90;;;;;;5050393;28;20776;-70
2022/07/07 06:31:24;;;;;;;0.50;0.50;;;15.00;99.90;;;;;;5053670;28;20436;-70
2022/07/07 06:34:12;;;;;;;0.50;0.50;;;15.00;99.90;;;;;;5054533;28;20657;-69
2022/07/07 06:37:01;;;;;;;0.40;0.40;;;15.00;99.90;;;;;;5054378;28;20428;-70
2022/07/07 06:39:49;;;;;;;0.50;0.50;;;15.00;99.90;;;;;;5053928;28;20460;-70
2022/07/07 06:42:37;;;;;;;0.50;0.50;;;15.10;99.90;;;;;;5053829;28;20417;-70
2022/07/07 06:45:29;;;;;;;0.50;0.50;;;15.20;99.90;;;;;;5053293;28;20482;-70
2022/07/07 06:48:17;;;;;;;0.40;0.40;;;15.20;99.90;;;;;;5054107;28;20223;-69
2022/07/07 06:51:06;;;;;;;0.50;0.50;;;15.40;99.90;;;;;;5051389;28;20685;-70
2022/07/07 06:53:54;;;;;;;0.50;0.50;;;15.40;99.90;;;;;;5043361;28;20448;-70
2022/07/07 06:56:43;;;;;;;0.40;0.40;;;15.50;99.90;;;;;;5037872;28;20440;-69
2022/07/07 06:59:31;;;;;;;0.40;0.40;;;15.40;99.90;;;;;;5053350;28;20225;-70
2022/07/07 07:02:20;;;;;;;0.50;0.50;;;15.40;99.90;;;;;;5053231;28;20625;-71
2022/07/07 07:05:09;;;;;;;0.40;0.40;;;15.60;99.90;;;;;;5033917;28;20222;-70
2022/07/07 07:07:57;;;;;;;0.40;0.40;;;15.70;99.90;;;;;;5033434;28;20858;-70
2022/07/07 07:10:45;;;;;;;0.50;0.50;;;15.70;99.90;;;;;;5033272;28;20205;-69
2022/07/07 07:13:34;;;;;;;0.40;0.40;;;15.70;99.90;;;;;;5052024;28;20210;-70
2022/07/07 07:16:22;;;;;;;0.50;0.50;;;15.70;99.90;;;;;;5057285;28;20232;-72
2022/07/07 07:19:11;;;;;;;0.50;0.50;;;15.70;99.90;;;;;;5055559;28;20221;-70
2022/07/07 07:21:59;;;;;;;1.00;1.00;;;15.70;99.90;;;;;;5055900;28;20208;-70
2022/07/07 07:24:47;;;;;;;0.50;0.50;;;15.60;99.90;;;;;;5056220;28;20225;-70
2022/07/07 07:27:36;;;;;;;0.50;0.50;;;15.60;99.90;;;;;;5056753;28;20202;-70
2022/07/07 07:30:25;;;;;;;0.50;0.50;;;15.60;99.90;;;;;;5056743;28;20193;-70
2022/07/07 07:33:13;;;;;;;0.50;0.50;;;15.70;99.90;;;;;;5057193;28;20205;-69
2022/07/07 07:36:07;;;;;;;0.70;0.70;;;15.70;99.90;;;;;;5057156;28;20460;-70
2022/07/07 07:38:56;;;;;;;0.50;0.50;;;15.80;99.90;;;;;;5061928;28;20261;-69
2022/07/07 07:41:44;;;;;;;0.50;0.50;;;15.80;99.90;;;;;;5053504;28;20464;-72
2022/07/07 07:47:40;;;;;;;0.50;0.50;;;16.10;99.90;;;;;;5056271;28;20559;-69
2022/07/07 07:50:29;;;;;;;0.60;0.60;;;16.10;99.90;;;;;;5056238;28;20604;-69
2022/07/07 07:53:19;;;;;;;0.50;0.50;;;16.10;99.90;;;;;;5055757;28;20205;-70
2022/07/07 07:56:07;;;;;;;0.50;0.50;;;16.00;99.90;;;;;;5055843;28;20440;-70
2022/07/07 07:58:56;;;;;;;0.50;0.50;;;16.00;99.90;;;;;;5054575;28;20590;-73
2022/07/07 08:01:44;;;;;;;0.50;0.50;;;16.00;99.90;;;;;;5035751;28;20202;-70
2022/07/07 08:04:32;;;;;;;0.40;0.40;;;16.00;99.90;;;;;;5035041;28;20218;-70
2022/07/07 08:07:20;;;;;;;0.40;0.40;;;16.10;99.90;;;;;;5043408;28;20204;-71
2022/07/07 08:10:11;;;;;;;0.50;0.50;;;16.40;99.90;;;;;;5050413;28;20208;-72
2022/07/07 08:12:59;;;;;;;0.40;0.40;;;16.60;99.90;;;;;;5052602;28;20212;-74
2022/07/07 08:15:47;;;;;;;0.50;0.50;;;16.70;99.90;;;;;;5052763;28;20720;-71
2022/07/07 08:18:35;;;;;;;0.50;0.50;;;16.60;99.90;;;;;;5068183;28;20216;-71
2022/07/07 08:21:24;;;;;;;0.65;0.65;;;16.60;99.90;;;;;;5048062;28;20525;-71
2022/07/07 08:24:12;;;;;;;0.50;0.50;;;16.50;99.90;;;;;;5047689;28;20208;-73
2022/07/07 08:27:03;;;;;;;0.40;0.40;;;16.60;99.90;;;;;;5046763;28;20213;-71
2022/07/07 08:29:51;;;;;;;0.40;0.40;;;16.80;99.90;;;;;;5051227;28;20757;-73
2022/07/07 08:32:39;;;;;;;0.50;0.50;;;17.00;99.90;;;;;;5046905;28;20670;-74
2022/07/07 08:35:27;;;;;;;0.50;0.50;;;17.20;99.90;;;;;;5049530;28;20232;-71
2022/07/07 08:38:16;;;;;;;0.50;0.50;;;17.20;99.90;;;;;;5047669;28;20209;-73
2022/07/07 08:41:05;;;;;;;0.40;0.40;;;17.10;99.90;;;;;;5048529;28;20735;-71
2022/07/07 08:43:56;;;;;;;0.70;0.70;;;17.00;99.90;;;;;;5046160;28;20209;-73
2022/07/07 08:46:44;;;;;;;0.50;0.50;;;16.80;99.90;;;;;;5047558;28;20212;-74
2022/07/07 08:49:32;;;;;;;0.50;0.50;;;16.80;99.90;;;;;;5040972;28;20228;-72
2022/07/07 08:52:21;;;;;;;0.50;0.50;;;16.70;99.90;;;;;;5047787;28;20311;-74
2022/07/07 08:55:10;;;;;;;1.50;1.40;;;16.70;99.90;;;;;;5049512;28;20225;-73
2022/07/07 08:57:59;;;;;;;0.60;0.60;;;16.90;99.90;;;;;;5049772;28;20213;-71
2022/07/07 09:00:48;;;;;;;0.40;0.40;;;17.10;99.90;;;;;;5051640;28;20218;-73
2022/07/07 09:03:37;;;;;;;0.50;0.50;;;17.20;99.90;;;;;;5053535;28;20205;-71
2022/07/07 09:06:25;;;;;;;0.60;0.60;;;17.10;99.90;;;;;;5052280;28;20213;-71
2022/07/07 09:09:13;;;;;;;0.50;0.50;;;17.50;99.90;;;;;;5051661;28;20197;-73
2022/07/07 09:12:01;;;;;;;0.50;0.50;;;17.90;99.90;;;;;;5052358;28;20244;-75
2022/07/07 09:14:55;;;;;;;0.40;0.40;;;18.50;99.90;;;;;;5052541;28;20370;-73
2022/07/07 09:17:44;;;;;;;0.40;0.40;;;18.90;99.90;;;;;;5048275;28;20201;-75
2022/07/07 09:20:35;;;;;;;0.40;0.40;;;19.00;99.90;;;;;;5051838;28;20213;-71
2022/07/07 09:23:23;;;;;;;0.50;0.50;;;18.80;99.90;;;;;;5049788;28;20664;-73
2022/07/07 09:26:12;;;;;;;0.50;0.50;;;18.50;99.90;;;;;;5051816;28;20246;-72
2022/07/07 09:29:00;;;;;;;0.40;0.40;;;18.50;99.90;;;;;;5053051;28;20205;-72
2022/07/07 09:31:53;;;;;;;1.75;1.10;;;18.40;99.90;;;;;;5053019;28;20224;-75
2022/07/07 09:34:42;;;;;;;1.40;1.40;;;18.50;99.90;;;;;;5064360;28;20713;-72
2022/07/07 09:40:54;;;;;;;0.40;0.40;;;18.60;99.90;;;;;;5049294;28;20205;-73
2022/07/07 09:43:46;;;;;;;0.60;0.52;;;18.60;99.90;;;;;;5053549;28;20228;-73
2022/07/07 09:46:35;;;;;;;0.50;0.50;;;18.60;99.90;;;;;;5057196;28;20226;-72
2022/07/07 09:49:23;;;;;;;0.82;0.82;;;18.40;99.90;;;;;;5087325;28;20214;-74
2022/07/07 09:52:21;;;;;;;2.67;2.35;;;18.40;99.90;;;;;;5079847;28;20180;-71
2022/07/07 09:55:11;;;;;;;0.50;0.50;;;18.60;99.90;;;;;;5073415;28;20229;-75
2022/07/07 09:57:59;;;;;;;0.70;0.70;;;18.90;99.90;;;;;;5076205;28;20198;-72
2022/07/07 10:00:47;;;;;;;0.50;0.50;;;19.00;99.90;;;;;;5074444;28;20252;-75
2022/07/07 10:03:36;;;;;;;0.80;0.60;;;18.90;99.90;;;;;;5076393;28;20205;-73
2022/07/07 10:06:26;;;;;;;0.45;0.45;;;18.80;99.90;;;;;;5074867;28;20247;-73
2022/07/07 10:09:18;;;;;;;0.50;0.50;;;18.60;99.90;;;;;;5074145;28;20228;-73
2022/07/07 10:12:07;;;;;;;0.80;0.80;;;18.40;99.90;;;;;;5062639;28;20239;-71
2022/07/07 10:14:59;;;;;;;0.50;0.50;;;18.20;99.90;;;;;;5049426;28;20233;-73
2022/07/07 10:17:49;;;;;;;0.60;0.60;;;18.10;99.90;;;;;;5049543;28;20230;-73
2022/07/07 10:20:38;;;;;;;0.50;0.50;;;18.30;99.90;;;;;;5055278;28;20224;-74
2022/07/07 10:23:27;;;;;;;1.33;1.23;;;18.50;99.90;;;;;;5049386;28;20209;-71
2022/07/07 10:26:17;;;;;;;0.40;0.40;;;18.50;99.90;;;;;;5048136;28;20612;-72
2022/07/07 10:29:07;;;;;;;0.45;0.45;;;18.60;99.90;;;;;;5049395;28;20213;-72
2022/07/07 10:31:55;;;;;;;0.70;0.68;;;18.50;99.90;;;;;;5051231;28;20282;-74
2022/07/07 10:34:50;;;;;;;0.50;0.50;;;18.30;99.90;;;;;;5049329;28;20236;-75
2022/07/07 10:37:43;;;;;;;0.60;0.60;;;18.10;99.90;;;;;;5048861;28;20201;-75
2022/07/07 10:40:31;;;;;;;0.60;0.55;;;18.00;99.90;;;;;;5049296;28;20236;-75
2022/07/07 10:43:27;;;;;;;0.60;0.60;;;18.10;99.90;;;;;;5048847;28;20205;-75
2022/07/07 10:46:15;;;;;;;0.55;0.55;;;18.00;99.90;;;;;;5052280;28;20232;-76
2022/07/07 10:49:10;;;;;;;1.17;1.08;;;17.20;99.90;;;;;;5053214;28;20217;-73
2022/07/07 10:51:59;;;;;;;0.40;0.40;;;18.00;99.90;;;;;;5053524;28;20205;-72
2022/07/07 10:54:50;;;;;;;0.68;0.60;;;17.90;99.90;;;;;;5051693;28;20748;-73
2022/07/07 10:57:43;;;;;;;0.57;0.57;;;17.90;99.90;;;;;;5052824;28;20213;-74
2022/07/07 11:00:33;;;;;;;0.40;0.40;;;17.90;99.90;;;;;;5052501;28;20609;-75
2022/07/07 11:03:23;;;;;;;0.40;0.40;;;17.90;99.90;;;;;;5050554;28;20197;-76
2022/07/07 11:06:12;;;;;;;0.57;0.57;;;17.70;99.90;;;;;;5052209;28;20228;-74
2022/07/07 11:09:02;;;;;;;0.50;0.50;;;17.80;99.90;;;;;;5052673;28;20877;-76
2022/07/07 11:12:33;;;;;;;0.75;0.63;;;17.80;99.90;;;;;;5055737;28;20208;-76
2022/07/07 11:15:38;;;;;;;0.40;0.40;;;17.90;99.90;;;;;;5052364;28;20244;-73
2022/07/07 11:18:26;;;;;;;0.82;0.82;;;18.00;99.90;;;;;;5054436;28;20665;-73
2022/07/07 11:21:15;;;;;;;0.50;0.50;;;18.20;99.90;;;;;;5053261;28;20225;-73
2022/07/07 11:24:13;;;;;;;0.60;0.60;;;18.20;99.90;;;;;;5052913;28;20206;-74
2022/07/07 11:27:03;;;;;;;0.40;0.40;;;18.30;99.90;;;;;;5052798;28;20231;-72
2022/07/07 11:29:57;;;;;;;0.40;0.40;;;18.20;99.90;;;;;;5053716;28;20728;-74
2022/07/07 11:32:47;;;;;;;0.40;0.40;;;18.10;99.90;;;;;;5056802;28;20201;-73
2022/07/07 11:35:37;;;;;;;0.50;0.50;;;18.10;99.90;;;;;;5057214;28;20795;-74
2022/07/07 11:38:28;;;;;;;0.63;0.63;;;18.20;99.90;;;;;;5058435;28;20216;-74
2022/07/07 11:41:17;;;;;;;0.45;0.45;;;18.30;99.90;;;;;;5052004;28;20236;-76
2022/07/07 11:44:05;;;;;;;0.60;0.60;;;18.50;99.90;;;;;;5053215;28;20212;-72
2022/07/07 11:46:54;;;;;;;0.50;0.50;;;18.60;99.90;;;;;;5053207;28;20285;-74
2022/07/07 11:49:44;;;;;;;0.40;0.40;;;18.70;99.90;;;;;;5058851;28;20336;-72
2022/07/07 11:52:32;;;;;;;0.50;0.50;;;18.90;99.90;;;;;;5063686;28;20229;-74
2022/07/07 11:55:21;;;;;;;0.50;0.50;;;19.00;99.90;;;;;;5056312;28;20269;-72
2022/07/07 11:58:10;;;;;;;0.40;0.40;;;19.30;99.90;;;;;;5052663;28;20246;-75
2022/07/07 12:00:59;;;;;;;0.40;0.40;;;19.70;99.90;;;;;;5062173;28;20317;-76
2022/07/07 12:03:47;;;;;;;0.40;0.40;;;20.40;99.90;;;;;;5061868;28;20201;-73
2022/07/07 12:06:37;;;;;;;0.50;0.50;;;20.90;99.90;;;;;;5061080;28;20307;-71
2022/07/07 12:09:25;;;;;;;0.60;0.60;;;21.50;99.90;;;;;;5054636;28;20197;-73
2022/07/07 12:12:18;;;;;;;0.40;0.40;;;22.10;99.90;;;;;;5064375;28;20684;-73
2022/07/07 12:15:08;;;;;;;0.45;0.45;;;22.50;99.90;;;;;;5061707;28;20602;-75
2022/07/07 12:17:58;;;;;;;0.40;0.40;;;23.10;99.90;;;;;;5065234;28;20198;-73
2022/07/07 12:20:56;;;;;;;1.25;1.25;;;23.30;99.90;;;;;;5058126;28;20232;-73
2022/07/07 12:23:46;;;;;;;0.52;0.52;;;23.40;99.90;;;;;;5052671;28;20539;-72
2022/07/07 12:26:43;;;;;;;0.40;0.40;;;23.80;99.90;;;;;;5054959;28;20202;-72
2022/07/07 12:29:32;;;;;;;0.40;0.40;;;23.90;99.90;;;;;;5055410;28;20201;-72
2022/07/07 12:32:23;;;;;;;0.40;0.40;;;23.90;99.90;;;;;;5054966;28;20212;-72
2022/07/07 12:35:26;;;;;;;0.60;0.60;;;23.70;99.90;;;;;;5052708;28;20249;-75
2022/07/07 12:38:15;;;;;;;0.40;0.40;;;22.80;99.90;;;;;;5059693;28;20228;-73
2022/07/07 12:41:05;;;;;;;0.40;0.40;;;22.40;99.90;;;;;;5057298;28;20235;-73
2022/07/07 12:43:54;;;;;;;1.13;0.95;;;22.10;99.90;;;;;;5060517;28;20205;-75
2022/07/07 12:46:44;;;;;;;0.50;0.50;;;21.70;99.90;;;;;;5058917;28;20278;-76
2022/07/07 12:49:32;;;;;;;0.50;0.50;;;21.50;99.90;;;;;;5055919;28;20201;-74
2022/07/07 12:52:20;;;;;;;0.40;0.40;;;21.30;99.90;;;;;;5062960;28;20212;-72
2022/07/07 12:55:10;;;;;;;0.60;0.60;;;21.20;99.90;;;;;;5064229;28;20216;-73
2022/07/07 12:58:03;;;;;;;0.77;0.50;;;21.10;99.90;;;;;;5054570;28;20604;-72
2022/07/07 13:01:02;;;;;;;0.40;0.40;;;21.10;99.90;;;;;;5073275;28;20205;-73
2022/07/07 13:03:52;;;;;;;0.50;0.50;;;21.20;99.90;;;;;;5062443;28;20201;-74
2022/07/07 13:06:40;;;;;;;0.50;0.50;;;21.10;99.90;;;;;;5059814;28;20197;-72
2022/07/07 13:09:28;;;;;;;0.50;0.50;;;21.00;99.90;;;;;;5064391;28;20197;-76
2022/07/07 13:12:24;;;;;;;0.50;0.50;;;20.80;99.90;;;;;;5058809;28;20201;-75
2022/07/07 13:15:15;;;;;;;0.40;0.40;;;20.90;99.90;;;;;;5051343;28;21033;-73
2022/07/07 13:18:04;;;;;;;0.40;0.40;;;22.00;99.90;;;;;;5064770;28;20553;-70
2022/07/07 13:20:52;;;;;;;0.40;0.40;;;25.90;99.90;;;;;;5055554;28;20315;-70
2022/07/07 13:23:40;;;;;;;0.40;0.40;;;29.70;99.90;;;;;;5054038;28;20590;-70
2022/07/07 13:26:29;;;;;;;0.40;0.40;;;32.10;99.90;;;;;;5050256;28;20217;-70
2022/07/07 13:29:18;;;;;;;0.40;0.40;;;33.90;99.80;;;;;;5060924;28;20670;-72
2022/07/07 13:32:08;;;;;;;0.40;0.40;;;34.50;97.70;;;;;;5055437;28;20246;-73
2022/07/07 13:34:56;;;;;;;0.40;0.40;;;35.90;92.70;;;;;;5054611;28;20222;-74
2022/07/07 13:37:44;;;;;;;0.50;0.50;;;37.00;86.00;;;;;;5057704;28;20196;-73
2022/07/07 13:40:32;;;;;;;0.40;0.40;;;37.40;78.80;;;;;;5057824;28;20703;-74
2022/07/07 13:43:23;;;;;;;0.50;0.50;;;37.50;78.10;;;;;;5055991;28;20244;-73
2022/07/07 13:46:11;;;;;;;0.40;0.40;;;38.00;73.80;;;;;;5047434;28;20275;-73
2022/07/07 13:49:01;;;;;;;0.50;0.50;;;38.00;71.10;;;;;;5052691;28;20277;-73
2022/07/07 13:51:50;;;;;;;0.50;0.50;;;36.40;73.20;;;;;;5035198;28;20196;-73
2022/07/07 13:54:55;;;;;;;0.40;0.40;;;35.00;75.80;;;;;;5058666;28;20237;-70
2022/07/07 13:57:44;;;;;;;0.70;0.70;;;33.40;79.20;;;;;;5056896;28;20205;-73
2022/07/07 14:00:32;;;;;;;0.40;0.40;;;31.90;82.30;;;;;;5054518;28;20733;-74
2022/07/07 14:03:21;;;;;;;0.80;0.80;;;29.70;87.70;;;;;;5055251;28;20224;-73
2022/07/07 14:06:11;;;;;;;0.50;0.50;;;27.60;92.00;;;;;;5050048;28;20573;-74
2022/07/07 14:08:59;;;;;;;0.40;0.40;;;26.40;94.90;;;;;;5048776;28;20204;-77
2022/07/07 14:11:48;;;;;;;0.50;0.50;;;25.20;98.00;;;;;;5051366;28;20672;-74
2022/07/07 14:14:36;;;;;;;0.50;0.50;;;24.40;99.90;;;;;;5057484;28;20235;-77
2022/07/07 14:17:26;;;;;;;0.40;0.40;;;23.60;99.90;;;;;;5061598;28;20202;-78
2022/07/07 14:20:15;;;;;;;0.50;0.50;;;23.10;99.90;;;;;;5056007;28;20204;-75
2022/07/07 14:23:04;;;;;;;0.50;0.50;;;23.10;99.90;;;;;;5058824;28;20228;-73
2022/07/07 14:25:53;;;;;;;0.50;0.50;;;23.10;99.90;;;;;;5055108;28;20224;-77
2022/07/07 14:28:41;;;;;;;0.50;0.50;;;23.70;99.90;;;;;;5052541;28;20209;-75
2022/07/07 14:31:33;;;;;;;0.47;0.47;;;24.00;99.90;;;;;;5056471;28;20978;-76
2022/07/07 14:34:21;;;;;;;0.50;0.50;;;23.80;99.90;;;;;;5054933;28;20205;-74
2022/07/07 14:37:09;;;;;;;0.47;0.47;;;23.80;99.90;;;;;;5052105;28;20618;-73
2022/07/07 14:39:59;;;;;;;0.40;0.40;;;23.50;99.90;;;;;;5053615;28;20202;-72
2022/07/07 14:42:47;;;;;;;0.50;0.50;;;23.20;99.90;;;;;;5053332;28;20228;-72
2022/07/07 14:45:35;;;;;;;0.40;0.40;;;23.00;99.90;;;;;;5052933;28;20227;-71
2022/07/07 14:48:23;;;;;;;0.45;0.45;;;22.60;99.90;;;;;;5052137;28;20216;-70